createdAt,value
2019-05-19T00:01:01.679Z,8.23
2019-05-19T00:03:30.159Z,8.90
2019-05-19T00:05:58.563Z,9.07
2019-05-19T00:08:27.018Z,8.67
2019-05-19T00:10:55.426Z,8.67
2019-05-19T00:13:23.887Z,9.60
2019-05-19T00:15:52.284Z,9.57
2019-05-19T00:18:20.783Z,9.43
2019-05-19T00:20:49.198Z,9.30
2019-05-19T00:23:17.610Z,9.63
2019-05-19T00:25:46.017Z,9.17
2019-05-19T00:28:14.424Z,8.70
2019-05-19T00:30:43.147Z,9.10
2019-05-19T00:33:11.554Z,10.37
2019-05-19T00:35:39.969Z,9.90
2019-05-19T00:38:08.407Z,10.27
2019-05-19T00:40:36.821Z,9.37
2019-05-19T00:43:05.216Z,9.57
2019-05-19T00:45:33.625Z,9.37
2019-05-19T00:48:02.042Z,8.97
2019-05-19T00:50:30.450Z,8.07
2019-05-19T00:52:58.935Z,9.60
2019-05-19T00:55:27.338Z,6.87
2019-05-19T00:57:56.785Z,6.93
2019-05-19T01:00:25.195Z,6.37
2019-05-19T01:02:53.603Z,6.63
2019-05-19T01:05:22.012Z,7.50
2019-05-19T01:07:50.405Z,8.17
2019-05-19T01:10:19.059Z,7.40
2019-05-19T01:12:47.458Z,7.50
2019-05-19T01:15:17.714Z,6.67
2019-05-19T01:17:46.116Z,7.20
2019-05-19T01:20:15.150Z,7.03
2019-05-19T01:22:43.552Z,7.50
2019-05-19T01:25:12.298Z,8.07
2019-05-19T01:27:40.733Z,7.47
2019-05-19T01:30:10.738Z,7.50
2019-05-19T01:32:39.137Z,7.90
2019-05-19T01:35:07.877Z,7.40
2019-05-19T01:37:36.274Z,6.57
2019-05-19T01:40:06.891Z,6.23
2019-05-19T01:42:35.358Z,6.67
2019-05-19T01:45:08.216Z,6.90
2019-05-19T01:47:36.619Z,6.50
2019-05-19T01:50:22.231Z,6.77
2019-05-19T01:52:37.003Z,7.33
2019-05-19T01:55:06.253Z,6.83
2019-05-19T01:57:34.666Z,9.97
2019-05-19T02:00:04.345Z,8.70
2019-05-19T02:02:32.844Z,9.73
2019-05-19T02:05:01.358Z,8.00
2019-05-19T02:07:29.851Z,8.40
2019-05-19T02:09:58.354Z,8.90
2019-05-19T02:12:26.846Z,7.87
2019-05-19T02:14:55.254Z,8.00
2019-05-19T02:17:23.654Z,8.07
2019-05-19T02:19:52.064Z,8.30
2019-05-19T02:22:20.461Z,8.20
2019-05-19T02:24:48.871Z,8.33
2019-05-19T02:27:17.278Z,9.67
2019-05-19T02:29:45.689Z,8.80
2019-05-19T02:32:14.097Z,7.87
2019-05-19T02:34:42.779Z,8.40
2019-05-19T02:37:11.189Z,7.77
2019-05-19T02:39:39.670Z,8.90
2019-05-19T02:42:09.213Z,9.70
2019-05-19T02:44:39.664Z,7.13
2019-05-19T02:47:09.775Z,7.00
2019-05-19T02:49:39.191Z,7.50
2019-05-19T02:52:09.236Z,8.03
2019-05-19T02:54:37.979Z,7.60
2019-05-19T02:57:06.622Z,7.60
2019-05-19T02:59:35.843Z,8.07
2019-05-19T03:02:05.891Z,7.17
2019-05-19T03:04:34.293Z,7.50
2019-05-19T03:07:02.703Z,8.20
2019-05-19T03:09:31.102Z,7.73
2019-05-19T03:11:59.577Z,7.27
2019-05-19T03:14:27.975Z,7.37
2019-05-19T03:16:56.393Z,7.53
2019-05-19T03:19:24.827Z,7.67
2019-05-19T03:21:53.234Z,7.73
2019-05-19T03:24:21.634Z,8.23
2019-05-19T03:26:50.316Z,7.80
2019-05-19T03:29:20.362Z,8.70
2019-05-19T03:31:56.359Z,7.93
2019-05-19T03:34:26.671Z,9.63
2019-05-19T03:36:55.079Z,8.00
2019-05-19T03:39:23.482Z,8.67
2019-05-19T03:41:51.892Z,8.47
2019-05-19T03:44:20.287Z,7.63
2019-05-19T03:46:48.692Z,7.47
2019-05-19T03:49:17.274Z,7.60
2019-05-19T03:51:48.498Z,7.70
2019-05-19T03:54:16.889Z,9.17
2019-05-19T03:56:45.296Z,8.77
2019-05-19T03:59:13.694Z,9.03
2019-05-19T04:01:42.105Z,7.37
2019-05-19T04:04:10.499Z,7.67
2019-05-19T04:06:38.914Z,8.33
2019-05-19T04:09:07.839Z,7.30
2019-05-19T04:11:36.254Z,7.17
2019-05-19T04:14:04.657Z,6.30
2019-05-19T04:16:33.067Z,5.90
2019-05-19T04:19:02.706Z,6.93
2019-05-19T04:21:47.480Z,6.23
2019-05-19T04:24:01.282Z,5.23
2019-05-19T04:26:29.691Z,5.97
2019-05-19T04:28:58.106Z,5.40
2019-05-19T04:31:26.509Z,7.17
2019-05-19T04:33:54.955Z,6.27
2019-05-19T04:36:23.362Z,6.43
2019-05-19T04:38:51.797Z,7.93
2019-05-19T04:41:20.199Z,5.83
2019-05-19T04:43:48.603Z,5.10
2019-05-19T04:46:17.007Z,5.13
2019-05-19T04:48:45.414Z,6.03
2019-05-19T04:51:13.825Z,5.83
2019-05-19T04:53:42.306Z,5.80
2019-05-19T04:56:10.705Z,5.63
2019-05-19T04:58:39.107Z,5.60
2019-05-19T05:01:07.519Z,5.00
2019-05-19T05:03:35.930Z,5.23
2019-05-19T05:06:04.343Z,6.47
2019-05-19T05:08:32.758Z,5.30
2019-05-19T05:11:01.163Z,5.93
2019-05-19T05:13:29.570Z,5.00
2019-05-19T05:15:57.978Z,5.67
2019-05-19T05:18:26.394Z,5.83
2019-05-19T05:20:54.806Z,5.53
2019-05-19T05:23:23.220Z,7.67
2019-05-19T05:25:51.619Z,5.43
2019-05-19T05:28:20.058Z,7.20
2019-05-19T05:30:48.570Z,6.17
2019-05-19T05:33:16.981Z,5.97
2019-05-19T05:35:45.399Z,5.87
2019-05-19T05:38:13.811Z,6.00
2019-05-19T05:40:42.214Z,6.10
2019-05-19T05:43:10.644Z,6.30
2019-05-19T05:45:39.046Z,7.27
2019-05-19T05:48:07.455Z,6.73
2019-05-19T05:50:35.862Z,7.27
2019-05-19T05:53:04.343Z,6.37
2019-05-19T05:55:32.750Z,7.40
2019-05-19T05:58:01.170Z,7.00
2019-05-19T06:00:29.571Z,6.80
2019-05-19T06:02:58.023Z,7.20
2019-05-19T06:05:26.431Z,6.50
2019-05-19T06:07:54.839Z,8.17
2019-05-19T06:10:23.241Z,7.50
2019-05-19T06:12:51.655Z,8.30
2019-05-19T06:15:20.063Z,7.10
2019-05-19T06:17:48.469Z,7.90
2019-05-19T06:20:16.945Z,9.30
2019-05-19T06:22:55.675Z,8.40
2019-05-19T06:25:15.607Z,9.13
2019-05-19T06:27:44.038Z,8.87
2019-05-19T06:30:13.122Z,9.00
2019-05-19T06:32:43.173Z,10.27
2019-05-19T06:35:11.925Z,11.70
2019-05-19T06:37:40.344Z,11.50
2019-05-19T06:40:08.993Z,10.43
2019-05-19T06:42:37.411Z,11.43
2019-05-19T06:45:06.158Z,12.67
2019-05-19T06:47:34.580Z,11.90
2019-05-19T06:50:04.314Z,14.10
2019-05-19T06:52:32.738Z,13.43
2019-05-19T06:55:01.247Z,13.27
2019-05-19T06:57:29.665Z,16.27
2019-05-19T06:59:58.094Z,15.47
2019-05-19T07:02:26.558Z,14.50
2019-05-19T07:04:55.019Z,14.93
2019-05-19T07:07:23.526Z,15.37
2019-05-19T07:09:58.466Z,19.00
2019-05-19T07:12:22.079Z,17.83
2019-05-19T07:14:50.500Z,18.50
2019-05-19T07:17:18.986Z,23.10
2019-05-19T07:19:47.407Z,16.02
2019-05-19T07:22:15.838Z,15.45
2019-05-19T07:24:44.251Z,17.67
2019-05-19T07:27:12.680Z,14.25
2019-05-19T07:29:41.172Z,16.45
2019-05-19T07:32:11.029Z,16.62
2019-05-19T07:34:39.466Z,16.77
2019-05-19T07:37:10.392Z,15.35
2019-05-19T07:39:38.982Z,15.75
2019-05-19T07:42:07.445Z,15.88
2019-05-19T07:44:35.931Z,15.45
2019-05-19T07:47:04.394Z,15.93
2019-05-19T07:49:32.804Z,14.93
2019-05-19T07:52:01.221Z,16.70
2019-05-19T07:54:29.710Z,16.93
2019-05-19T07:56:58.242Z,14.60
2019-05-19T07:59:26.745Z,15.93
2019-05-19T08:01:55.423Z,15.48
2019-05-19T08:04:23.857Z,16.25
2019-05-19T08:06:52.342Z,15.63
2019-05-19T08:09:20.746Z,16.15
2019-05-19T08:11:49.159Z,15.58
2019-05-19T08:14:17.594Z,16.93
2019-05-19T08:16:46.008Z,16.62
2019-05-19T08:19:14.430Z,16.60
2019-05-19T08:21:42.838Z,29.63
2019-05-19T08:24:11.393Z,15.98
2019-05-19T08:26:39.914Z,16.07
2019-05-19T08:29:08.390Z,14.55
2019-05-19T08:31:36.809Z,16.20
2019-05-19T08:34:05.324Z,14.93
2019-05-19T08:36:33.898Z,15.65
2019-05-19T08:39:03.960Z,14.83
2019-05-19T08:41:32.369Z,15.58
2019-05-19T08:44:01.085Z,15.95
2019-05-19T08:46:29.498Z,16.12
2019-05-19T08:48:58.583Z,15.43
2019-05-19T08:51:27.174Z,16.07
2019-05-19T08:53:55.589Z,15.60
2019-05-19T08:56:24.010Z,15.65
2019-05-19T08:58:52.433Z,14.13
2019-05-19T09:01:20.848Z,14.10
2019-05-19T09:03:49.333Z,14.80
2019-05-19T09:06:18.030Z,15.98
2019-05-19T09:08:46.615Z,15.05
2019-05-19T09:11:15.065Z,14.50
2019-05-19T09:13:43.525Z,14.73
2019-05-19T09:16:12.202Z,14.65
2019-05-19T09:18:40.635Z,14.03
2019-05-19T09:21:09.038Z,13.98
2019-05-19T09:23:37.466Z,13.85
2019-05-19T09:26:05.898Z,13.25
2019-05-19T09:28:34.363Z,12.33
2019-05-19T09:31:02.771Z,13.83
2019-05-19T09:33:31.259Z,12.45
2019-05-19T09:35:59.675Z,12.47
2019-05-19T09:38:28.105Z,11.55
2019-05-19T09:40:56.510Z,12.65
2019-05-19T09:43:24.935Z,11.65
2019-05-19T09:45:53.342Z,12.18
2019-05-19T09:48:21.773Z,10.90
2019-05-19T09:50:50.288Z,10.93
2019-05-19T09:53:18.698Z,11.85
2019-05-19T09:55:47.125Z,12.35
2019-05-19T09:58:19.728Z,11.83
2019-05-19T10:00:46.173Z,11.75
2019-05-19T10:03:14.600Z,12.70
2019-05-19T10:05:43.065Z,13.45
2019-05-19T10:08:11.482Z,13.62
2019-05-19T10:10:52.121Z,13.70
2019-05-19T10:13:20.534Z,13.03
2019-05-19T10:15:48.959Z,13.75
2019-05-19T10:18:17.374Z,14.13
2019-05-19T10:20:45.790Z,12.37
2019-05-19T10:23:14.202Z,13.00
2019-05-19T10:25:42.849Z,12.78
2019-05-19T10:28:11.262Z,12.18
2019-05-19T10:30:39.702Z,11.60
2019-05-19T10:33:08.119Z,12.00
2019-05-19T10:35:36.909Z,12.40
2019-05-19T10:38:05.325Z,12.00
2019-05-19T10:40:33.879Z,12.13
2019-05-19T10:43:02.405Z,11.25
2019-05-19T10:45:30.827Z,10.15
2019-05-19T10:47:59.265Z,10.35
2019-05-19T10:50:27.675Z,9.85
2019-05-19T10:52:56.100Z,10.95
2019-05-19T10:55:35.548Z,11.48
2019-05-19T10:57:54.742Z,10.53
2019-05-19T11:00:23.423Z,9.53
2019-05-19T11:02:51.835Z,9.40
2019-05-19T11:05:20.287Z,9.15
2019-05-19T11:07:48.768Z,9.60
2019-05-19T11:10:17.672Z,10.23
2019-05-19T11:12:47.012Z,10.18
2019-05-19T11:15:15.844Z,10.10
2019-05-19T11:17:44.246Z,10.30
2019-05-19T11:20:13.021Z,9.90
2019-05-19T11:22:41.438Z,10.38
2019-05-19T11:25:10.182Z,10.13
2019-05-19T11:27:38.595Z,8.40
2019-05-19T11:30:07.318Z,9.63
2019-05-19T11:32:35.710Z,8.48
2019-05-19T11:35:06.331Z,8.35
2019-05-19T11:37:34.737Z,9.05
2019-05-19T11:40:03.586Z,8.75
2019-05-19T11:42:32.092Z,7.60
2019-05-19T11:45:00.519Z,8.15
2019-05-19T11:47:28.987Z,7.97
2019-05-19T11:49:57.393Z,8.75
2019-05-19T11:52:25.845Z,8.53
2019-05-19T11:54:54.258Z,8.43
2019-05-19T11:57:22.670Z,8.33
2019-05-19T11:59:51.130Z,8.03
2019-05-19T12:02:19.539Z,7.25
2019-05-19T12:04:47.946Z,7.78
2019-05-19T12:07:16.353Z,9.53
2019-05-19T12:09:44.818Z,8.33
2019-05-19T12:12:13.238Z,7.97
2019-05-19T12:14:41.641Z,7.90
2019-05-19T12:17:10.094Z,6.90
2019-05-19T12:19:38.612Z,7.55
2019-05-19T12:22:07.031Z,7.50
2019-05-19T12:24:35.438Z,7.17
2019-05-19T12:27:04.304Z,7.95
2019-05-19T12:29:32.738Z,7.20
2019-05-19T12:32:01.171Z,7.80
2019-05-19T12:34:29.583Z,7.47
2019-05-19T12:36:58.006Z,7.53
2019-05-19T12:39:26.410Z,7.50
2019-05-19T12:41:54.910Z,6.62
2019-05-19T12:44:23.319Z,7.92
2019-05-19T12:46:51.733Z,7.97
2019-05-19T12:49:20.257Z,9.80
2019-05-19T12:51:48.662Z,8.33
2019-05-19T12:54:17.086Z,8.03
2019-05-19T12:56:45.485Z,10.13
2019-05-19T12:59:13.958Z,8.00
2019-05-19T13:01:42.367Z,8.40
2019-05-19T13:04:10.780Z,7.40
2019-05-19T13:06:39.670Z,6.87
2019-05-19T13:09:08.250Z,6.58
2019-05-19T13:11:36.686Z,8.70
2019-05-19T13:14:05.249Z,6.70
2019-05-19T13:16:33.658Z,7.87
2019-05-19T13:19:02.121Z,7.22
2019-05-19T13:21:30.534Z,8.23
2019-05-19T13:23:58.987Z,7.28
2019-05-19T13:26:27.394Z,6.83
2019-05-19T13:28:55.814Z,7.47
2019-05-19T13:31:24.222Z,8.43
2019-05-19T13:33:52.677Z,5.85
2019-05-19T13:36:21.081Z,6.17
2019-05-19T13:38:49.554Z,6.12
2019-05-19T13:41:17.949Z,4.28
2019-05-19T13:43:46.362Z,5.42
2019-05-19T13:46:14.778Z,4.08
2019-05-19T13:48:43.213Z,4.47
2019-05-19T13:51:11.611Z,4.65
2019-05-19T13:53:40.030Z,4.72
2019-05-19T13:56:08.440Z,5.30
2019-05-19T13:58:36.854Z,5.92
2019-05-19T14:01:05.790Z,5.97
2019-05-19T14:03:34.325Z,5.45
2019-05-19T14:06:02.721Z,6.80
2019-05-19T14:08:31.221Z,6.20
2019-05-19T14:10:59.697Z,6.58
2019-05-19T14:13:28.140Z,6.62
2019-05-19T14:15:56.542Z,6.62
2019-05-19T14:18:24.966Z,6.47
2019-05-19T14:20:53.371Z,7.60
2019-05-19T14:23:21.786Z,7.12
2019-05-19T14:25:50.265Z,6.22
2019-05-19T14:28:18.678Z,6.25
2019-05-19T14:30:47.107Z,7.22
2019-05-19T14:33:15.595Z,6.45
2019-05-19T14:35:44.015Z,6.37
2019-05-19T14:38:12.450Z,6.45
2019-05-19T14:40:41.018Z,7.25
2019-05-19T14:43:09.567Z,6.37
2019-05-19T14:45:38.014Z,6.72
2019-05-19T14:48:06.477Z,7.10
2019-05-19T14:50:34.887Z,8.75
2019-05-19T14:53:03.293Z,7.25
2019-05-19T14:55:31.707Z,9.15
2019-05-19T14:58:00.114Z,7.47
2019-05-19T15:00:28.586Z,7.50
2019-05-19T15:02:56.990Z,7.22
2019-05-19T15:05:25.401Z,7.97
2019-05-19T15:07:53.838Z,7.40
2019-05-19T15:10:22.684Z,7.30
2019-05-19T15:12:51.105Z,8.60
2019-05-19T15:15:20.115Z,8.00
2019-05-19T15:17:48.545Z,7.60
2019-05-19T15:20:17.097Z,6.97
2019-05-19T15:22:45.507Z,7.45
2019-05-19T15:25:14.489Z,6.15
2019-05-19T15:27:42.894Z,6.25
2019-05-19T15:30:13.802Z,6.53
2019-05-19T15:32:42.070Z,7.50
2019-05-19T15:35:11.252Z,6.85
2019-05-19T15:37:39.726Z,6.28
2019-05-19T15:40:08.894Z,6.33
2019-05-19T15:42:37.302Z,7.12
2019-05-19T15:45:07.158Z,6.45
2019-05-19T15:47:35.573Z,8.68
2019-05-19T15:50:06.799Z,7.15
2019-05-19T15:52:35.258Z,8.28
2019-05-19T15:55:04.909Z,8.93
2019-05-19T15:57:33.498Z,7.22
2019-05-19T16:00:02.334Z,7.55
2019-05-19T16:02:31.842Z,7.10
2019-05-19T16:05:00.261Z,6.90
2019-05-19T16:07:28.667Z,6.33
2019-05-19T16:09:57.084Z,7.17
2019-05-19T16:12:25.580Z,5.80
2019-05-19T16:14:54.258Z,6.10
2019-05-19T16:17:22.667Z,10.98
2019-05-19T16:19:51.085Z,6.62
2019-05-19T16:22:19.498Z,6.20
2019-05-19T16:24:47.927Z,7.05
2019-05-19T16:27:16.371Z,7.75
2019-05-19T16:29:44.822Z,7.33
2019-05-19T16:32:13.246Z,7.10
2019-05-19T16:34:41.666Z,8.53
2019-05-19T16:37:10.154Z,6.83
2019-05-19T16:39:38.665Z,6.67
2019-05-19T16:42:07.095Z,7.10
2019-05-19T16:44:35.553Z,7.23
2019-05-19T16:47:04.198Z,7.33
2019-05-19T16:49:32.684Z,8.37
2019-05-19T16:52:01.122Z,7.37
2019-05-19T16:54:37.378Z,13.70
2019-05-19T16:57:05.773Z,8.03
2019-05-19T16:59:34.203Z,7.80
2019-05-19T17:02:02.757Z,7.40
2019-05-19T17:04:31.573Z,8.37
2019-05-19T17:07:02.878Z,8.27
2019-05-19T17:09:30.154Z,8.47
2019-05-19T17:11:58.639Z,8.20
2019-05-19T17:14:27.076Z,8.87
2019-05-19T17:16:55.506Z,9.57
2019-05-19T17:19:24.054Z,8.83
2019-05-19T17:22:29.731Z,8.87
2019-05-19T17:25:00.363Z,8.73
2019-05-19T17:27:30.254Z,12.87
2019-05-19T17:29:58.674Z,9.63
2019-05-19T17:32:27.079Z,9.23
2019-05-19T17:34:55.496Z,9.90
2019-05-19T17:37:23.901Z,9.30
2019-05-19T17:39:52.309Z,9.70
2019-05-19T17:42:20.723Z,10.00
2019-05-19T17:44:49.309Z,9.90
2019-05-19T17:47:17.820Z,9.33
2019-05-19T17:49:46.300Z,9.30
2019-05-19T17:52:14.715Z,9.30
2019-05-19T17:54:43.582Z,10.33
2019-05-19T17:57:12.134Z,9.90
2019-05-19T17:59:43.695Z,10.13
2019-05-19T18:02:12.098Z,10.10
2019-05-19T18:04:40.586Z,9.63
2019-05-19T18:07:08.981Z,9.57
2019-05-19T18:09:37.386Z,9.80
2019-05-19T18:12:05.801Z,10.37
2019-05-19T18:14:34.214Z,11.37
2019-05-19T18:17:02.994Z,11.03
2019-05-19T18:19:31.399Z,11.17
2019-05-19T18:21:59.933Z,9.93
2019-05-19T18:24:28.369Z,10.13
2019-05-19T18:26:56.779Z,9.83
2019-05-19T18:29:31.533Z,10.63
2019-05-19T18:31:55.385Z,10.10
2019-05-19T18:34:23.777Z,9.73
2019-05-19T18:36:52.190Z,10.40
2019-05-19T18:39:20.698Z,9.60
2019-05-19T18:41:49.466Z,11.73
2019-05-19T18:44:17.973Z,9.60
2019-05-19T18:46:46.394Z,10.00
2019-05-19T18:49:14.802Z,10.37
2019-05-19T18:51:43.212Z,9.67
2019-05-19T18:54:11.617Z,9.67
2019-05-19T18:56:40.031Z,10.30
2019-05-19T18:59:08.436Z,9.93
2019-05-19T19:01:36.848Z,10.40
2019-05-19T19:04:05.272Z,11.37
2019-05-19T19:06:33.850Z,12.33
2019-05-19T19:09:02.498Z,11.33
2019-05-19T19:11:31.015Z,10.57
2019-05-19T19:13:59.433Z,10.77
2019-05-19T19:16:27.837Z,10.20
2019-05-19T19:18:56.251Z,10.97
2019-05-19T19:21:24.659Z,9.90
2019-05-19T19:23:53.074Z,11.23
2019-05-19T19:26:21.490Z,10.73
2019-05-19T19:28:49.903Z,9.50
2019-05-19T19:31:18.311Z,10.47
2019-05-19T19:33:46.717Z,12.10
2019-05-19T19:36:15.130Z,12.47
2019-05-19T19:38:43.539Z,10.43
2019-05-19T19:41:11.945Z,9.73
2019-05-19T19:43:40.354Z,14.43
2019-05-19T19:46:08.762Z,11.33
2019-05-19T19:48:37.176Z,10.63
2019-05-19T19:51:05.584Z,10.60
2019-05-19T19:53:33.989Z,10.60
2019-05-19T19:56:02.397Z,10.63
2019-05-19T19:58:30.808Z,9.70
2019-05-19T20:00:59.227Z,10.07
2019-05-19T20:03:27.694Z,10.60
2019-05-19T20:05:56.137Z,11.07
2019-05-19T20:08:24.537Z,9.37
2019-05-19T20:10:52.955Z,10.10
2019-05-19T20:13:21.370Z,10.83
2019-05-19T20:15:49.806Z,10.90
2019-05-19T20:18:18.222Z,11.50
2019-05-19T20:20:46.661Z,10.60
2019-05-19T20:23:15.065Z,11.63
2019-05-19T20:25:43.487Z,12.27
2019-05-19T20:28:11.895Z,10.67
2019-05-19T20:30:40.308Z,12.03
2019-05-19T20:33:08.737Z,13.17
2019-05-19T20:35:37.234Z,11.60
2019-05-19T20:38:05.719Z,12.50
2019-05-19T20:40:34.131Z,11.40
2019-05-19T20:43:02.577Z,11.73
2019-05-19T20:45:31.237Z,11.67
2019-05-19T20:47:59.834Z,11.97
2019-05-19T20:50:29.232Z,11.37
2019-05-19T20:52:57.645Z,12.20
2019-05-19T20:55:26.093Z,14.13
2019-05-19T20:57:54.498Z,15.03
2019-05-19T21:00:22.918Z,14.97
2019-05-19T21:02:51.546Z,14.77
2019-05-19T21:05:20.051Z,14.20
2019-05-19T21:07:49.786Z,15.23
2019-05-19T21:10:18.237Z,15.33
2019-05-19T21:12:46.689Z,14.60
2019-05-19T21:15:15.277Z,15.13
2019-05-19T21:17:43.685Z,17.20
2019-05-19T21:20:12.385Z,18.87
2019-05-19T21:22:40.790Z,16.13
2019-05-19T21:25:09.657Z,16.13
2019-05-19T21:27:38.093Z,13.37
2019-05-19T21:30:07.786Z,18.07
2019-05-19T21:32:36.198Z,14.57
2019-05-19T21:35:06.257Z,12.53
2019-05-19T21:37:34.653Z,14.77
2019-05-19T21:40:03.438Z,18.33
2019-05-19T21:42:31.864Z,15.53
2019-05-19T21:45:00.363Z,16.83
2019-05-19T21:47:28.770Z,14.60
2019-05-19T21:49:57.298Z,14.60
2019-05-19T21:52:25.713Z,16.00
2019-05-19T21:54:54.154Z,16.33
2019-05-19T21:57:22.625Z,18.83
2019-05-19T21:59:51.041Z,16.10
2019-05-19T22:02:19.453Z,16.37
2019-05-19T22:04:47.869Z,17.07
2019-05-19T22:07:18.185Z,16.63
2019-05-19T22:09:46.659Z,16.40
2019-05-19T22:12:15.065Z,16.03
2019-05-19T22:14:43.552Z,17.53
2019-05-19T22:17:11.965Z,16.00
2019-05-19T22:19:40.419Z,17.03
2019-05-19T22:22:08.865Z,16.87
2019-05-19T22:24:37.361Z,16.07
2019-05-19T22:27:05.781Z,16.20
2019-05-19T22:29:34.189Z,14.80
2019-05-19T22:32:02.677Z,15.90
2019-05-19T22:34:31.085Z,14.70
2019-05-19T22:36:59.506Z,15.20
2019-05-19T22:39:27.930Z,13.40
2019-05-19T22:41:56.343Z,15.23
2019-05-19T22:44:24.766Z,13.47
2019-05-19T22:46:53.181Z,12.80
2019-05-19T22:49:21.593Z,15.27
2019-05-19T22:51:50.014Z,13.63
2019-05-19T22:54:18.430Z,15.00
2019-05-19T22:56:46.846Z,16.27
2019-05-19T22:59:19.864Z,13.97
2019-05-19T23:01:51.730Z,14.97
2019-05-19T23:04:15.540Z,15.90
2019-05-19T23:06:43.946Z,14.33
2019-05-19T23:09:12.360Z,15.53
2019-05-19T23:11:40.782Z,14.67
2019-05-19T23:14:09.194Z,15.33
2019-05-19T23:16:37.606Z,15.80
2019-05-19T23:19:06.025Z,14.30
2019-05-19T23:21:34.615Z,15.40
2019-05-19T23:24:03.127Z,16.40
2019-05-19T23:26:31.541Z,15.23
2019-05-19T23:29:00.022Z,16.37
2019-05-19T23:31:28.434Z,14.43
2019-05-19T23:33:56.887Z,15.77
2019-05-19T23:36:25.347Z,13.87
2019-05-19T23:38:53.773Z,14.10
2019-05-19T23:41:22.174Z,15.13
2019-05-19T23:43:50.607Z,16.47
2019-05-19T23:46:19.027Z,16.00
2019-05-19T23:48:47.431Z,15.47
2019-05-19T23:51:15.846Z,18.03
2019-05-19T23:53:44.276Z,17.63
2019-05-19T23:56:12.673Z,18.40
2019-05-19T23:58:41.230Z,16.27
